createdAt,value
2018-10-17T00:01:50.973Z,95877.52
2018-10-17T00:04:20.325Z,95881.00
2018-10-17T00:06:49.624Z,95878.04
2018-10-17T00:09:18.790Z,95877.21
2018-10-17T00:11:47.941Z,95868.88
2018-10-17T00:14:17.141Z,95869.95
2018-10-17T00:16:46.413Z,95871.31
2018-10-17T00:19:15.651Z,95867.53
2018-10-17T00:21:44.813Z,95865.94
2018-10-17T00:24:13.988Z,95876.66
2018-10-17T00:26:43.264Z,95870.16
2018-10-17T00:29:12.473Z,95867.75
2018-10-17T00:31:41.604Z,95862.16
2018-10-17T00:34:10.851Z,95862.93
2018-10-17T00:36:40.006Z,95861.30
2018-10-17T00:39:10.832Z,95863.16
2018-10-17T00:41:40.273Z,95861.02
2018-10-17T00:44:09.451Z,95860.72
2018-10-17T00:46:38.625Z,95860.21
2018-10-17T00:49:07.800Z,95859.67
2018-10-17T00:51:36.981Z,95860.23
2018-10-17T00:54:06.943Z,95861.30
2018-10-17T00:56:36.102Z,95862.86
2018-10-17T00:59:16.376Z,95857.17
2018-10-17T01:01:45.464Z,95864.69
2018-10-17T01:04:14.636Z,95860.38
2018-10-17T01:06:43.826Z,95857.16
2018-10-17T01:09:14.818Z,95853.86
2018-10-17T01:11:44.009Z,95856.58
2018-10-17T01:14:13.171Z,95849.63
2018-10-17T01:16:42.357Z,95842.36
2018-10-17T01:19:11.577Z,95847.47
2018-10-17T01:21:40.669Z,95844.52
2018-10-17T01:24:09.845Z,95850.92
2018-10-17T01:26:38.987Z,95845.58
2018-10-17T01:29:08.213Z,95847.45
2018-10-17T01:31:37.341Z,95843.67
2018-10-17T01:34:06.494Z,95841.54
2018-10-17T01:36:35.908Z,95842.59
2018-10-17T01:39:07.856Z,95837.75
2018-10-17T01:41:37.045Z,95839.88
2018-10-17T01:44:06.973Z,95845.80
2018-10-17T01:46:36.393Z,95846.05
2018-10-17T01:49:05.785Z,95839.63
2018-10-17T01:51:34.970Z,95834.80
2018-10-17T01:54:04.136Z,95840.35
2018-10-17T01:56:33.310Z,95831.20
2018-10-17T01:59:02.584Z,95832.29
2018-10-17T02:01:31.705Z,95835.47
2018-10-17T02:04:00.901Z,95831.17
2018-10-17T02:06:30.073Z,95829.25
2018-10-17T02:08:59.250Z,95831.72
2018-10-17T02:11:28.494Z,95834.06
2018-10-17T02:13:57.672Z,95834.69
2018-10-17T02:16:26.867Z,95836.29
2018-10-17T02:18:56.119Z,95833.36
2018-10-17T02:21:25.220Z,95833.93
2018-10-17T02:23:54.385Z,95834.74
2018-10-17T02:26:23.534Z,95833.89
2018-10-17T02:28:52.817Z,95829.34
2018-10-17T02:31:21.936Z,95830.17
2018-10-17T02:33:51.101Z,95827.80
2018-10-17T02:36:20.273Z,95826.91
2018-10-17T02:38:49.450Z,95832.02
2018-10-17T02:41:18.704Z,95826.83
2018-10-17T02:43:47.822Z,95825.49
2018-10-17T02:46:23.763Z,95827.08
2018-10-17T02:48:53.023Z,95833.77
2018-10-17T02:51:22.176Z,95830.77
2018-10-17T02:53:51.373Z,95831.87
2018-10-17T02:56:20.542Z,95834.79
2018-10-17T02:58:49.740Z,95833.17
2018-10-17T03:01:18.991Z,95833.67
2018-10-17T03:03:48.061Z,95836.36
2018-10-17T03:06:17.272Z,95834.16
2018-10-17T03:08:46.454Z,95837.36
2018-10-17T03:11:15.661Z,95834.66
2018-10-17T03:13:44.765Z,95832.45
2018-10-17T03:16:13.923Z,95828.17
2018-10-17T03:18:43.085Z,95831.11
2018-10-17T03:21:12.303Z,95828.72
2018-10-17T03:23:41.493Z,95830.85
2018-10-17T03:26:10.678Z,95829.52
2018-10-17T03:28:39.815Z,95830.28
2018-10-17T03:31:09.113Z,95829.99
2018-10-17T03:33:38.261Z,95833.22
2018-10-17T03:36:07.471Z,95840.36
2018-10-17T03:38:36.641Z,95841.70
2018-10-17T03:41:05.909Z,95844.06
2018-10-17T03:43:35.084Z,95843.56
2018-10-17T03:46:04.304Z,95846.19
2018-10-17T03:48:33.528Z,95847.00
2018-10-17T03:51:02.760Z,95847.50
2018-10-17T03:53:32.449Z,95849.06
2018-10-17T03:56:01.686Z,95847.70
2018-10-17T03:58:30.841Z,95850.96
2018-10-17T04:01:00.059Z,95847.67
2018-10-17T04:03:29.189Z,95846.53
2018-10-17T04:05:58.333Z,95849.24
2018-10-17T04:08:27.821Z,95850.00
2018-10-17T04:10:57.051Z,95848.92
2018-10-17T04:13:26.341Z,95845.16
2018-10-17T04:15:55.563Z,95844.81
2018-10-17T04:18:25.533Z,95839.75
2018-10-17T04:20:54.980Z,95834.69
2018-10-17T04:23:24.188Z,95833.06
2018-10-17T04:25:53.376Z,95833.84
2018-10-17T04:28:22.656Z,95836.78
2018-10-17T04:30:51.817Z,95833.06
2018-10-17T04:33:20.994Z,95834.23
2018-10-17T04:35:50.165Z,95838.70
2018-10-17T04:38:19.444Z,95844.55
2018-10-17T04:40:48.689Z,95842.95
2018-10-17T04:43:17.938Z,95843.22
2018-10-17T04:45:47.107Z,95839.39
2018-10-17T04:48:34.028Z,95841.26
2018-10-17T04:51:03.196Z,95840.73
2018-10-17T04:53:32.448Z,95845.04
2018-10-17T04:56:01.677Z,95842.89
2018-10-17T04:58:30.845Z,95842.59
2018-10-17T05:01:00.218Z,95842.59
2018-10-17T05:03:29.325Z,95839.63
2018-10-17T05:05:58.817Z,95846.02
2018-10-17T05:08:27.973Z,95847.03
2018-10-17T05:10:57.288Z,95849.12
2018-10-17T05:13:26.624Z,95849.93
2018-10-17T05:15:55.877Z,95850.19
2018-10-17T05:18:25.140Z,95850.16
2018-10-17T05:20:54.314Z,95852.28
2018-10-17T05:23:23.588Z,95853.05
2018-10-17T05:25:52.834Z,95857.07
2018-10-17T05:28:22.081Z,95859.16
2018-10-17T05:30:51.287Z,95859.60
2018-10-17T05:33:20.456Z,95861.49
2018-10-17T05:35:49.819Z,95861.75
2018-10-17T05:38:19.036Z,95866.22
2018-10-17T05:40:48.263Z,95861.20
2018-10-17T05:43:17.706Z,95867.41
2018-10-17T05:45:46.950Z,95870.86
2018-10-17T05:48:16.100Z,95873.31
2018-10-17T05:50:45.269Z,95870.67
2018-10-17T05:53:14.511Z,95876.87
2018-10-17T05:55:43.761Z,95878.51
2018-10-17T05:58:12.958Z,95877.13
2018-10-17T06:00:42.259Z,95876.35
2018-10-17T06:03:11.522Z,95881.18
2018-10-17T06:05:40.728Z,95882.84
2018-10-17T06:08:09.932Z,95883.08
2018-10-17T06:10:39.082Z,95890.06
2018-10-17T06:13:08.303Z,95889.28
2018-10-17T06:15:37.494Z,95897.86
2018-10-17T06:18:06.822Z,95903.44
2018-10-17T06:20:36.101Z,95901.84
2018-10-17T06:23:05.573Z,95908.63
2018-10-17T06:25:34.882Z,95908.12
2018-10-17T06:28:04.510Z,95904.17
2018-10-17T06:30:33.716Z,95905.80
2018-10-17T06:33:02.911Z,95904.21
2018-10-17T06:35:32.115Z,95900.56
2018-10-17T06:38:01.258Z,95901.73
2018-10-17T06:40:30.438Z,95899.15
2018-10-17T06:42:59.623Z,95897.94
2018-10-17T06:45:28.769Z,95903.32
2018-10-17T06:47:58.034Z,95908.23
2018-10-17T06:50:27.177Z,95905.70
2018-10-17T06:52:56.350Z,95898.66
2018-10-17T06:55:25.547Z,95902.13
2018-10-17T06:57:54.889Z,95903.98
2018-10-17T07:00:24.061Z,95901.27
2018-10-17T07:02:53.243Z,95901.09
2018-10-17T07:05:22.777Z,95899.45
2018-10-17T07:07:51.970Z,95899.41
2018-10-17T07:10:21.208Z,95896.86
2018-10-17T07:12:50.365Z,95901.36
2018-10-17T07:15:19.645Z,95899.12
2018-10-17T07:17:48.794Z,95892.79
2018-10-17T07:20:17.964Z,95897.34
2018-10-17T07:22:47.129Z,95897.45
2018-10-17T07:25:16.366Z,95896.49
2018-10-17T07:27:45.558Z,95892.73
2018-10-17T07:30:14.764Z,95893.30
2018-10-17T07:32:43.943Z,95891.10
2018-10-17T07:35:13.152Z,95898.61
2018-10-17T07:37:42.317Z,95893.87
2018-10-17T07:40:11.494Z,95892.63
2018-10-17T07:42:40.638Z,95898.89
2018-10-17T07:45:09.902Z,95893.24
2018-10-17T07:47:39.146Z,95899.61
2018-10-17T07:50:09.446Z,95909.23
2018-10-17T07:52:38.667Z,95905.94
2018-10-17T07:55:10.519Z,95908.44
2018-10-17T07:57:39.873Z,95911.17
2018-10-17T08:00:13.180Z,95910.52
2018-10-17T08:02:42.375Z,95910.25
2018-10-17T08:05:11.588Z,95907.52
2018-10-17T08:07:40.812Z,95900.89
2018-10-17T08:10:10.923Z,95896.69
2018-10-17T08:12:40.240Z,95894.91
2018-10-17T08:15:10.115Z,95898.17
2018-10-17T08:17:39.352Z,95893.39
2018-10-17T08:20:10.925Z,95896.31
2018-10-17T08:22:40.157Z,95894.39
2018-10-17T08:25:10.957Z,95896.09
2018-10-17T08:27:40.313Z,95894.27
2018-10-17T08:30:10.333Z,95888.61
2018-10-17T08:32:40.053Z,95895.56
2018-10-17T08:35:09.578Z,95891.19
2018-10-17T08:37:39.101Z,95893.22
2018-10-17T08:40:08.015Z,95888.28
2018-10-17T08:42:37.249Z,95888.09
2018-10-17T08:45:06.982Z,95894.27
2018-10-17T08:47:36.105Z,95888.98
2018-10-17T08:50:05.319Z,95886.82
2018-10-17T08:52:34.473Z,95889.77
2018-10-17T08:55:03.677Z,95888.61
2018-10-17T08:57:32.899Z,95891.98
2018-10-17T09:00:02.081Z,95890.23
2018-10-17T09:02:31.242Z,95892.27
2018-10-17T09:05:00.433Z,95889.80
2018-10-17T09:07:29.606Z,95886.98
2018-10-17T09:09:58.799Z,95877.09
2018-10-17T09:12:28.126Z,95882.88
2018-10-17T09:14:57.401Z,95882.23
2018-10-17T09:17:26.577Z,95875.81
2018-10-17T09:19:56.021Z,95875.91
2018-10-17T09:22:26.329Z,95882.39
2018-10-17T09:24:55.248Z,95878.94
2018-10-17T09:27:24.464Z,95880.40
2018-10-17T09:29:53.736Z,95879.03
2018-10-17T09:32:22.900Z,95872.35
2018-10-17T09:34:52.105Z,95880.05
2018-10-17T09:37:21.286Z,95869.18
2018-10-17T09:39:50.499Z,95871.01
2018-10-17T09:42:19.745Z,95869.25
2018-10-17T09:44:48.845Z,95867.64
2018-10-17T09:47:18.106Z,95865.16
2018-10-17T09:49:47.293Z,95865.39
2018-10-17T09:52:23.193Z,95864.72
2018-10-17T09:54:52.774Z,95863.49
2018-10-17T09:57:22.031Z,95860.70
2018-10-17T09:59:51.291Z,95854.49
2018-10-17T10:02:20.792Z,95852.11
2018-10-17T10:04:50.041Z,95849.83
2018-10-17T10:07:19.205Z,95854.37
2018-10-17T10:09:48.353Z,95854.95
2018-10-17T10:12:17.554Z,95848.92
2018-10-17T10:14:46.752Z,95847.66
2018-10-17T10:17:16.044Z,95847.20
2018-10-17T10:19:45.217Z,95849.38
2018-10-17T10:22:14.398Z,95842.91
2018-10-17T10:24:43.658Z,95846.22
2018-10-17T10:27:12.834Z,95839.90
2018-10-17T10:29:42.120Z,95837.52
2018-10-17T10:32:11.201Z,95838.72
2018-10-17T10:34:40.419Z,95836.16
2018-10-17T10:37:09.632Z,95831.71
2018-10-17T10:39:38.966Z,95830.69
2018-10-17T10:42:08.152Z,95832.20
2018-10-17T10:44:37.335Z,95824.60
2018-10-17T10:47:06.721Z,95826.17
2018-10-17T10:49:35.865Z,95826.19
2018-10-17T10:52:05.316Z,95819.77
2018-10-17T10:54:34.465Z,95816.22
2018-10-17T10:57:03.630Z,95815.31
2018-10-17T10:59:33.090Z,95813.70
2018-10-17T11:02:02.047Z,95811.63
2018-10-17T11:04:31.178Z,95806.61
2018-10-17T11:07:00.349Z,95800.45
2018-10-17T11:09:29.545Z,95800.59
2018-10-17T11:11:58.745Z,95800.05
2018-10-17T11:14:28.014Z,95797.21
2018-10-17T11:16:57.057Z,95792.98
2018-10-17T11:19:26.213Z,95785.20
2018-10-17T11:21:55.474Z,95782.79
2018-10-17T11:24:24.646Z,95781.88
2018-10-17T11:26:53.805Z,95784.16
2018-10-17T11:29:22.988Z,95781.09
2018-10-17T11:31:52.265Z,95785.63
2018-10-17T11:34:21.375Z,95783.67
2018-10-17T11:36:50.562Z,95778.20
2018-10-17T11:39:19.721Z,95772.94
2018-10-17T11:41:48.898Z,95772.86
2018-10-17T11:44:18.104Z,95774.57
2018-10-17T11:46:47.277Z,95762.77
2018-10-17T11:49:16.492Z,95767.33
2018-10-17T11:51:45.657Z,95766.86
2018-10-17T11:54:14.893Z,95758.66
2018-10-17T11:56:44.295Z,95759.57
2018-10-17T11:59:13.578Z,95756.84
2018-10-17T12:01:42.657Z,95762.66
2018-10-17T12:04:12.051Z,95757.86
2018-10-17T12:06:41.004Z,95752.39
2018-10-17T12:09:10.625Z,95751.34
2018-10-17T12:11:40.094Z,95756.61
2018-10-17T12:14:09.318Z,95752.60
2018-10-17T12:16:38.482Z,95756.95
2018-10-17T12:19:07.972Z,95755.12
2018-10-17T12:21:37.149Z,95757.05
2018-10-17T12:24:06.464Z,95754.31
2018-10-17T12:26:35.597Z,95749.75
2018-10-17T12:29:04.847Z,95748.28
2018-10-17T12:31:33.997Z,95751.14
2018-10-17T12:34:03.171Z,95749.75
2018-10-17T12:36:32.329Z,95748.37
2018-10-17T12:39:01.551Z,95748.48
2018-10-17T12:41:30.755Z,95741.48
2018-10-17T12:43:59.933Z,95731.52
2018-10-17T12:46:29.142Z,95734.59
2018-10-17T12:48:58.495Z,95733.00
2018-10-17T12:51:27.589Z,95736.19
2018-10-17T12:53:56.729Z,95731.98
2018-10-17T12:56:25.885Z,95730.27
2018-10-17T12:58:55.269Z,95727.66
2018-10-17T13:01:24.409Z,95730.61
2018-10-17T13:03:53.869Z,95731.06
2018-10-17T13:06:23.026Z,95734.14
2018-10-17T13:08:52.192Z,95732.33
2018-10-17T13:11:21.450Z,95726.75
2018-10-17T13:13:50.499Z,95725.73
2018-10-17T13:16:19.650Z,95728.68
2018-10-17T13:18:48.788Z,95729.70
2018-10-17T13:21:17.945Z,95723.08
2018-10-17T13:23:47.126Z,95722.59
2018-10-17T13:26:16.291Z,95717.57
2018-10-17T13:28:45.511Z,95719.39
2018-10-17T13:31:14.843Z,95714.84
2018-10-17T13:33:43.903Z,95718.41
2018-10-17T13:36:13.072Z,95711.41
2018-10-17T13:38:42.262Z,95709.86
2018-10-17T13:41:11.538Z,95708.28
2018-10-17T13:43:40.608Z,95709.58
2018-10-17T13:46:09.821Z,95711.86
2018-10-17T13:48:39.006Z,95709.02
2018-10-17T13:51:08.225Z,95708.21
2018-10-17T13:53:37.416Z,95710.73
2018-10-17T13:56:07.041Z,95706.39
2018-10-17T13:58:36.232Z,95710.03
2018-10-17T14:01:05.515Z,95703.05
2018-10-17T14:03:34.649Z,95699.14
2018-10-17T14:06:03.870Z,95702.67
2018-10-17T14:08:33.097Z,95709.49
2018-10-17T14:11:02.235Z,95706.56
2018-10-17T14:13:31.486Z,95702.65
2018-10-17T14:16:00.546Z,95702.84
2018-10-17T14:18:29.724Z,95708.32
2018-10-17T14:20:58.893Z,95706.52
2018-10-17T14:23:28.109Z,95703.11
2018-10-17T14:25:57.264Z,95697.30
2018-10-17T14:28:26.459Z,95701.69
2018-10-17T14:30:55.630Z,95700.33
2018-10-17T14:33:25.046Z,95697.92
2018-10-17T14:35:54.490Z,95695.70
2018-10-17T14:38:23.633Z,95697.29
2018-10-17T14:40:52.931Z,95696.88
2018-10-17T14:43:21.964Z,95702.14
2018-10-17T14:45:51.153Z,95698.59
2018-10-17T14:48:20.331Z,95699.02
2018-10-17T14:50:49.503Z,95702.83
2018-10-17T14:53:18.805Z,95693.08
2018-10-17T14:55:48.020Z,95691.66
2018-10-17T14:58:17.096Z,95688.28
2018-10-17T15:00:46.241Z,95689.15
2018-10-17T15:03:15.481Z,95684.77
2018-10-17T15:05:44.649Z,95692.52
2018-10-17T15:08:13.807Z,95693.05
2018-10-17T15:10:43.262Z,95693.00
2018-10-17T15:13:12.307Z,95691.29
2018-10-17T15:15:44.384Z,95691.80
2018-10-17T15:18:14.555Z,95692.84
2018-10-17T15:20:44.025Z,95693.58
2018-10-17T15:23:13.678Z,95697.13
2018-10-17T15:25:42.825Z,95691.66
2018-10-17T15:28:11.991Z,95688.08
2018-10-17T15:30:41.157Z,95688.95
2018-10-17T15:33:10.509Z,95691.06
2018-10-17T15:35:39.580Z,95689.72
2018-10-17T15:38:08.873Z,95688.68
2018-10-17T15:40:38.062Z,95694.42
2018-10-17T15:43:07.255Z,95687.76
2018-10-17T15:45:36.433Z,95687.69
2018-10-17T15:48:05.981Z,95698.97
2018-10-17T15:50:35.107Z,95691.55
2018-10-17T15:53:04.323Z,95696.84
2018-10-17T15:55:33.499Z,95690.48
2018-10-17T15:58:02.852Z,95697.31
2018-10-17T16:00:32.064Z,95692.36
2018-10-17T16:03:01.233Z,95694.45
2018-10-17T16:05:30.494Z,95696.63
2018-10-17T16:07:59.693Z,95696.00
2018-10-17T16:10:28.850Z,95699.52
2018-10-17T16:12:58.049Z,95701.02
2018-10-17T16:15:27.226Z,95702.63
2018-10-17T16:17:56.552Z,95703.09
2018-10-17T16:20:25.657Z,95706.02
2018-10-17T16:22:54.867Z,95710.98
2018-10-17T16:25:23.948Z,95713.28
2018-10-17T16:27:53.165Z,95716.73
2018-10-17T16:30:22.731Z,95720.84
2018-10-17T16:32:51.811Z,95723.36
2018-10-17T16:35:20.994Z,95724.52
2018-10-17T16:37:50.236Z,95731.71
2018-10-17T16:40:19.469Z,95728.58
2018-10-17T16:42:48.633Z,95731.39
2018-10-17T16:45:17.799Z,95732.05
2018-10-17T16:47:46.989Z,95726.72
2018-10-17T16:50:16.299Z,95726.25
2018-10-17T16:52:45.373Z,95729.80
2018-10-17T16:55:14.647Z,95731.30
2018-10-17T16:57:43.901Z,95733.37
2018-10-17T17:00:13.516Z,95731.85
2018-10-17T17:02:42.691Z,95729.25
2018-10-17T17:05:13.271Z,95737.39
2018-10-17T17:07:42.647Z,95731.78
2018-10-17T17:10:13.084Z,95734.82
2018-10-17T17:12:42.609Z,95731.67
2018-10-17T17:15:12.210Z,95732.76
2018-10-17T17:17:41.341Z,95729.38
2018-10-17T17:20:11.609Z,95736.28
2018-10-17T17:22:41.494Z,95737.66
2018-10-17T17:25:10.840Z,95732.08
2018-10-17T17:27:40.050Z,95739.43
2018-10-17T17:30:14.639Z,95735.98
2018-10-17T17:32:44.266Z,95740.59
2018-10-17T17:35:13.496Z,95746.11
2018-10-17T17:37:42.969Z,95742.09
2018-10-17T17:40:13.585Z,95750.84
2018-10-17T17:42:42.765Z,95749.03
2018-10-17T17:45:11.988Z,95748.27
2018-10-17T17:47:41.196Z,95748.83
2018-10-17T17:50:10.787Z,95749.13
2018-10-17T17:52:40.162Z,95747.84
2018-10-17T17:57:47.323Z,95750.13
2018-10-17T18:00:16.502Z,95746.94
2018-10-17T18:02:45.701Z,95745.61
2018-10-17T18:05:15.195Z,95750.27
2018-10-17T18:07:44.434Z,95750.61
2018-10-17T18:10:13.686Z,95748.78
2018-10-17T18:12:42.848Z,95753.37
2018-10-17T18:15:12.145Z,95751.75
2018-10-17T18:17:41.523Z,95755.73
2018-10-17T18:20:12.987Z,95749.09
2018-10-17T18:22:42.275Z,95753.16
2018-10-17T18:25:11.497Z,95755.09
2018-10-17T18:27:42.317Z,95756.50
2018-10-17T18:30:11.451Z,95755.69
2018-10-17T18:32:40.969Z,95766.01
2018-10-17T18:35:12.997Z,95760.11
2018-10-17T18:37:42.349Z,95761.78
2018-10-17T18:40:11.555Z,95764.52
2018-10-17T18:42:40.751Z,95766.18
2018-10-17T18:45:10.055Z,95769.44
2018-10-17T18:47:39.611Z,95772.14
2018-10-17T18:50:09.048Z,95777.86
2018-10-17T18:52:38.285Z,95770.59
2018-10-17T18:55:07.914Z,95774.66
2018-10-17T18:57:37.212Z,95778.80
2018-10-17T19:00:09.145Z,95777.96
2018-10-17T19:02:38.403Z,95782.60
2018-10-17T19:05:07.697Z,95784.47
2018-10-17T19:09:01.750Z,95788.83
2018-10-17T19:11:30.963Z,95785.11
2018-10-17T19:14:00.161Z,95788.89
2018-10-17T19:16:29.524Z,95787.80
2018-10-17T19:18:58.753Z,95787.48
2018-10-17T19:21:28.133Z,95788.59
2018-10-17T19:23:57.449Z,95790.23
2018-10-17T19:26:26.712Z,95791.30
2018-10-17T19:28:56.961Z,95791.60
2018-10-17T19:31:26.147Z,95793.48
2018-10-17T19:33:55.406Z,95789.74
2018-10-17T19:36:24.650Z,95800.03
2018-10-17T19:38:53.885Z,95797.92
2018-10-17T19:41:23.413Z,95806.26
2018-10-17T19:43:52.613Z,95805.48
2018-10-17T19:46:21.919Z,95811.69
2018-10-17T19:48:51.172Z,95810.91
2018-10-17T19:51:20.356Z,95813.60
2018-10-17T19:53:49.702Z,95818.18
2018-10-17T19:56:18.936Z,95811.20
2018-10-17T19:58:48.152Z,95815.22
2018-10-17T20:01:17.840Z,95816.59
2018-10-17T20:03:47.072Z,95810.97
2018-10-17T20:06:18.052Z,95818.48
2018-10-17T20:08:47.374Z,95816.59
2018-10-17T20:11:17.135Z,95813.66
2018-10-17T20:13:46.383Z,95812.84
2018-10-17T20:16:15.633Z,95814.75
2018-10-17T20:18:44.837Z,95810.44
2018-10-17T20:21:14.097Z,95811.53
2018-10-17T20:23:43.288Z,95816.09
2018-10-17T20:26:12.848Z,95806.70
2018-10-17T20:28:42.100Z,95809.39
2018-10-17T20:31:13.864Z,95808.86
2018-10-17T20:33:43.261Z,95811.30
2018-10-17T20:36:12.508Z,95811.04
2018-10-17T20:38:41.787Z,95812.09
2018-10-17T20:41:10.913Z,95805.68
2018-10-17T20:43:40.182Z,95806.73
2018-10-17T20:46:09.439Z,95818.84
2018-10-17T20:48:38.745Z,95816.94
2018-10-17T20:51:07.967Z,95812.94
2018-10-17T20:53:40.568Z,95815.61
2018-10-17T20:56:09.929Z,95815.87
2018-10-17T20:58:39.046Z,95811.84
2018-10-17T21:01:08.896Z,95814.00
2018-10-17T21:03:39.010Z,95814.27
2018-10-17T21:06:08.260Z,95814.53
2018-10-17T21:08:37.451Z,95810.48
2018-10-17T21:11:06.824Z,95805.92
2018-10-17T21:13:35.984Z,95807.30
2018-10-17T21:16:05.505Z,95802.70
2018-10-17T21:18:34.824Z,95807.29
2018-10-17T21:21:03.998Z,95806.75
2018-10-17T21:23:33.261Z,95806.20
2018-10-17T21:26:02.553Z,95811.04
2018-10-17T21:28:31.881Z,95811.56
2018-10-17T21:31:01.277Z,95811.56
2018-10-17T21:33:30.482Z,95814.80
2018-10-17T21:35:59.649Z,95807.25
2018-10-17T21:38:28.852Z,95803.22
2018-10-17T21:40:58.066Z,95800.53
2018-10-17T21:43:27.281Z,95801.05
2018-10-17T21:45:56.437Z,95798.10
2018-10-17T21:48:25.641Z,95802.12
2018-10-17T21:50:54.964Z,95801.02
2018-10-17T21:53:24.169Z,95801.58
2018-10-17T21:55:53.468Z,95797.27
2018-10-17T21:58:22.621Z,95805.85
2018-10-17T22:00:51.892Z,95802.91
2018-10-17T22:03:21.582Z,95799.67
2018-10-17T22:05:50.773Z,95793.47
2018-10-17T22:08:19.984Z,95800.17
2018-10-17T22:10:49.267Z,95792.13
2018-10-17T22:13:18.426Z,95798.02
2018-10-17T22:15:47.805Z,95798.02
2018-10-17T22:18:17.228Z,95802.02
2018-10-17T22:20:46.712Z,95812.23
2018-10-17T22:23:15.927Z,95814.62
2018-10-17T22:25:45.266Z,95817.28
2018-10-17T22:28:14.437Z,95814.06
2018-10-17T22:30:43.626Z,95814.28
2018-10-17T22:33:12.861Z,95811.09
2018-10-17T22:35:42.144Z,95816.75
2018-10-17T22:38:11.464Z,95815.91
2018-10-17T22:40:40.707Z,95815.64
2018-10-17T22:43:09.921Z,95818.31
2018-10-17T22:45:39.327Z,95823.96
2018-10-17T22:48:08.600Z,95816.17
2018-10-17T22:50:37.822Z,95818.07
2018-10-17T22:53:07.000Z,95817.77
2018-10-17T22:55:36.195Z,95811.88
2018-10-17T22:58:05.832Z,95822.35
2018-10-17T23:00:35.032Z,95816.42
2018-10-17T23:03:04.198Z,95810.79
2018-10-17T23:05:33.381Z,95816.39
2018-10-17T23:08:02.728Z,95814.52
2018-10-17T23:10:31.882Z,95813.71
2018-10-17T23:13:01.055Z,95815.05
2018-10-17T23:15:30.241Z,95820.11
2018-10-17T23:17:59.466Z,95818.74
2018-10-17T23:20:28.737Z,95821.42
2018-10-17T23:22:57.888Z,95820.62
2018-10-17T23:25:27.102Z,95824.11
2018-10-17T23:27:56.254Z,95822.48
2018-10-17T23:30:25.477Z,95820.09
2018-10-17T23:32:54.717Z,95820.64
2018-10-17T23:35:23.878Z,95815.28
2018-10-17T23:37:53.090Z,95814.76
2018-10-17T23:40:22.239Z,95815.83
2018-10-17T23:42:51.394Z,95808.89
2018-10-17T23:45:20.593Z,95813.70
2018-10-17T23:47:49.780Z,95813.92
2018-10-17T23:50:19.002Z,95819.25
2018-10-17T23:52:48.069Z,95816.82
2018-10-17T23:55:17.267Z,95813.84
2018-10-17T23:57:46.409Z,95810.86
